sensor_id;sensor_type;location;lat;lon;timestamp;P1;durP1;ratioP1;P2;durP2;ratioP2
19778;SDS011;10049;59.306;18.090;2023-02-15T00:01:33;2.13;;;1.30;;
19778;SDS011;10049;59.306;18.090;2023-02-15T00:04:01;2.13;;;1.70;;
19778;SDS011;10049;59.306;18.090;2023-02-15T00:06:39;1.80;;;1.23;;
19778;SDS011;10049;59.306;18.090;2023-02-15T00:09:06;2.13;;;1.63;;
19778;SDS011;10049;59.306;18.090;2023-02-15T00:11:34;2.67;;;1.50;;
19778;SDS011;10049;59.306;18.090;2023-02-15T00:14:17;4.22;;;1.35;;
19778;SDS011;10049;59.306;18.090;2023-02-15T00:16:45;2.33;;;1.30;;
19778;SDS011;10049;59.306;18.090;2023-02-15T00:19:14;3.90;;;1.67;;
19778;SDS011;10049;59.306;18.090;2023-02-15T00:21:42;5.28;;;1.45;;
19778;SDS011;10049;59.306;18.090;2023-02-15T00:24:11;3.53;;;1.20;;
19778;SDS011;10049;59.306;18.090;2023-02-15T00:26:39;3.75;;;1.42;;
19778;SDS011;10049;59.306;18.090;2023-02-15T00:29:08;2.70;;;1.20;;
19778;SDS011;10049;59.306;18.090;2023-02-15T00:31:37;1.30;;;1.20;;
19778;SDS011;10049;59.306;18.090;2023-02-15T00:34:06;2.78;;;1.65;;
19778;SDS011;10049;59.306;18.090;2023-02-15T00:36:33;2.25;;;1.27;;
19778;SDS011;10049;59.306;18.090;2023-02-15T00:39:01;3.72;;;1.33;;
19778;SDS011;10049;59.306;18.090;2023-02-15T00:41:29;2.53;;;1.30;;
19778;SDS011;10049;59.306;18.090;2023-02-15T00:43:57;4.00;;;1.65;;
19778;SDS011;10049;59.306;18.090;2023-02-15T00:46:26;2.55;;;1.63;;
19778;SDS011;10049;59.306;18.090;2023-02-15T00:48:55;4.50;;;1.40;;
19778;SDS011;10049;59.306;18.090;2023-02-15T00:51:23;3.67;;;1.40;;
19778;SDS011;10049;59.306;18.090;2023-02-15T00:53:51;3.92;;;1.33;;
19778;SDS011;10049;59.306;18.090;2023-02-15T00:56:19;3.03;;;1.30;;
19778;SDS011;10049;59.306;18.090;2023-02-15T00:58:46;4.78;;;1.38;;
19778;SDS011;10049;59.306;18.090;2023-02-15T01:01:15;1.58;;;1.20;;
19778;SDS011;10049;59.306;18.090;2023-02-15T01:03:44;2.92;;;1.23;;
19778;SDS011;10049;59.306;18.090;2023-02-15T01:06:14;5.18;;;1.50;;
19778;SDS011;10049;59.306;18.090;2023-02-15T01:08:43;4.03;;;1.45;;
19778;SDS011;10049;59.306;18.090;2023-02-15T01:11:11;1.85;;;1.23;;
19778;SDS011;10049;59.306;18.090;2023-02-15T01:13:40;1.73;;;1.10;;
19778;SDS011;10049;59.306;18.090;2023-02-15T01:16:08;2.85;;;1.40;;
19778;SDS011;10049;59.306;18.090;2023-02-15T01:18:37;2.20;;;1.10;;
19778;SDS011;10049;59.306;18.090;2023-02-15T01:21:09;3.10;;;1.23;;
19778;SDS011;10049;59.306;18.090;2023-02-15T01:23:38;3.33;;;1.33;;
19778;SDS011;10049;59.306;18.090;2023-02-15T01:26:06;1.40;;;1.30;;
19778;SDS011;10049;59.306;18.090;2023-02-15T01:28:34;3.95;;;1.48;;
19778;SDS011;10049;59.306;18.090;2023-02-15T01:31:04;1.58;;;1.20;;
19778;SDS011;10049;59.306;18.090;2023-02-15T01:33:32;2.97;;;1.30;;
19778;SDS011;10049;59.306;18.090;2023-02-15T01:36:00;2.92;;;1.42;;
19778;SDS011;10049;59.306;18.090;2023-02-15T01:38:29;1.48;;;1.33;;
19778;SDS011;10049;59.306;18.090;2023-02-15T01:40:58;2.00;;;1.35;;
19778;SDS011;10049;59.306;18.090;2023-02-15T01:43:40;4.25;;;1.30;;
19778;SDS011;10049;59.306;18.090;2023-02-15T01:46:08;3.92;;;1.70;;
19778;SDS011;10049;59.306;18.090;2023-02-15T01:48:36;3.15;;;1.40;;
19778;SDS011;10049;59.306;18.090;2023-02-15T01:51:05;1.70;;;1.38;;
19778;SDS011;10049;59.306;18.090;2023-02-15T01:53:34;3.13;;;1.17;;
19778;SDS011;10049;59.306;18.090;2023-02-15T01:56:06;2.25;;;1.10;;
19778;SDS011;10049;59.306;18.090;2023-02-15T01:58:35;3.08;;;1.42;;
19778;SDS011;10049;59.306;18.090;2023-02-15T02:01:04;3.72;;;1.60;;
19778;SDS011;10049;59.306;18.090;2023-02-15T02:03:36;2.13;;;1.33;;
19778;SDS011;10049;59.306;18.090;2023-02-15T02:06:06;2.22;;;1.40;;
19778;SDS011;10049;59.306;18.090;2023-02-15T02:08:34;2.97;;;1.63;;
19778;SDS011;10049;59.306;18.090;2023-02-15T02:11:02;2.97;;;1.35;;
19778;SDS011;10049;59.306;18.090;2023-02-15T02:13:31;1.95;;;1.33;;
19778;SDS011;10049;59.306;18.090;2023-02-15T02:16:00;2.03;;;1.35;;
19778;SDS011;10049;59.306;18.090;2023-02-15T02:18:35;3.28;;;1.45;;
19778;SDS011;10049;59.306;18.090;2023-02-15T02:21:27;4.60;;;1.30;;
19778;SDS011;10049;59.306;18.090;2023-02-15T02:24:01;4.95;;;1.50;;
19778;SDS011;10049;59.306;18.090;2023-02-15T02:26:44;2.83;;;1.60;;
19778;SDS011;10049;59.306;18.090;2023-02-15T02:34:54;1.52;;;1.20;;
19778;SDS011;10049;59.306;18.090;2023-02-15T02:37:24;2.92;;;1.40;;
19778;SDS011;10049;59.306;18.090;2023-02-15T02:39:58;1.60;;;1.40;;
19778;SDS011;10049;59.306;18.090;2023-02-15T02:42:29;4.30;;;1.80;;
19778;SDS011;10049;59.306;18.090;2023-02-15T02:45:02;1.98;;;1.25;;
19778;SDS011;10049;59.306;18.090;2023-02-15T02:47:31;2.55;;;1.40;;
19778;SDS011;10049;59.306;18.090;2023-02-15T02:50:03;3.42;;;1.85;;
19778;SDS011;10049;59.306;18.090;2023-02-15T02:52:36;5.05;;;1.30;;
19778;SDS011;10049;59.306;18.090;2023-02-15T02:55:05;4.78;;;1.80;;
19778;SDS011;10049;59.306;18.090;2023-02-15T02:57:36;3.03;;;1.42;;
19778;SDS011;10049;59.306;18.090;2023-02-15T03:00:05;2.20;;;1.45;;
19778;SDS011;10049;59.306;18.090;2023-02-15T03:02:35;2.92;;;1.60;;
19778;SDS011;10049;59.306;18.090;2023-02-15T03:05:07;1.35;;;1.08;;
19778;SDS011;10049;59.306;18.090;2023-02-15T03:07:36;4.20;;;1.70;;
19778;SDS011;10049;59.306;18.090;2023-02-15T03:10:05;2.17;;;1.52;;
19778;SDS011;10049;59.306;18.090;2023-02-15T03:12:35;3.30;;;1.48;;
19778;SDS011;10049;59.306;18.090;2023-02-15T03:15:04;1.67;;;1.40;;
19778;SDS011;10049;59.306;18.090;2023-02-15T03:17:35;5.38;;;1.85;;
19778;SDS011;10049;59.306;18.090;2023-02-15T03:20:08;2.85;;;1.80;;
19778;SDS011;10049;59.306;18.090;2023-02-15T03:22:36;3.40;;;1.60;;
19778;SDS011;10049;59.306;18.090;2023-02-15T03:25:06;4.78;;;1.95;;
19778;SDS011;10049;59.306;18.090;2023-02-15T03:27:36;4.05;;;1.90;;
19778;SDS011;10049;59.306;18.090;2023-02-15T03:30:07;3.45;;;1.73;;
19778;SDS011;10049;59.306;18.090;2023-02-15T03:32:36;2.25;;;1.70;;
19778;SDS011;10049;59.306;18.090;2023-02-15T03:35:07;3.30;;;1.60;;
19778;SDS011;10049;59.306;18.090;2023-02-15T03:37:35;3.47;;;1.90;;
19778;SDS011;10049;59.306;18.090;2023-02-15T03:40:06;3.08;;;1.90;;
19778;SDS011;10049;59.306;18.090;2023-02-15T03:42:49;2.85;;;1.80;;
19778;SDS011;10049;59.306;18.090;2023-02-15T03:45:21;2.35;;;1.75;;
19778;SDS011;10049;59.306;18.090;2023-02-15T03:47:51;4.75;;;1.80;;
19778;SDS011;10049;59.306;18.090;2023-02-15T03:50:21;2.70;;;1.85;;
19778;SDS011;10049;59.306;18.090;2023-02-15T03:53:21;3.00;;;1.90;;
19778;SDS011;10049;59.306;18.090;2023-02-15T03:55:49;3.72;;;1.95;;
19778;SDS011;10049;59.306;18.090;2023-02-15T03:58:17;2.70;;;1.90;;
19778;SDS011;10049;59.306;18.090;2023-02-15T04:01:04;2.72;;;1.73;;
19778;SDS011;10049;59.306;18.090;2023-02-15T04:03:56;3.30;;;2.03;;
19778;SDS011;10049;59.306;18.090;2023-02-15T04:06:27;3.10;;;1.95;;
19778;SDS011;10049;59.306;18.090;2023-02-15T04:08:55;2.88;;;2.00;;
19778;SDS011;10049;59.306;18.090;2023-02-15T04:11:42;3.88;;;2.00;;
19778;SDS011;10049;59.306;18.090;2023-02-15T04:14:10;4.68;;;2.30;;
19778;SDS011;10049;59.306;18.090;2023-02-15T04:16:51;3.70;;;2.00;;
19778;SDS011;10049;59.306;18.090;2023-02-15T04:19:19;3.95;;;2.45;;
19778;SDS011;10049;59.306;18.090;2023-02-15T04:22:06;4.35;;;2.47;;
19778;SDS011;10049;59.306;18.090;2023-02-15T04:24:51;3.22;;;2.25;;
19778;SDS011;10049;59.306;18.090;2023-02-15T04:27:38;4.18;;;2.58;;
19778;SDS011;10049;59.306;18.090;2023-02-15T04:30:07;3.55;;;2.30;;
19778;SDS011;10049;59.306;18.090;2023-02-15T04:32:34;3.60;;;2.60;;
19778;SDS011;10049;59.306;18.090;2023-02-15T04:35:04;7.18;;;2.60;;
19778;SDS011;10049;59.306;18.090;2023-02-15T04:37:36;5.20;;;2.83;;
19778;SDS011;10049;59.306;18.090;2023-02-15T04:40:04;5.97;;;2.67;;
19778;SDS011;10049;59.306;18.090;2023-02-15T04:42:32;3.90;;;2.40;;
19778;SDS011;10049;59.306;18.090;2023-02-15T04:45:00;2.72;;;2.00;;
19778;SDS011;10049;59.306;18.090;2023-02-15T04:47:29;3.72;;;2.35;;
19778;SDS011;10049;59.306;18.090;2023-02-15T04:49:56;4.28;;;2.30;;
19778;SDS011;10049;59.306;18.090;2023-02-15T04:52:24;3.97;;;2.13;;
19778;SDS011;10049;59.306;18.090;2023-02-15T04:54:53;4.38;;;2.42;;
19778;SDS011;10049;59.306;18.090;2023-02-15T04:57:21;3.85;;;2.40;;
19778;SDS011;10049;59.306;18.090;2023-02-15T04:59:48;4.22;;;2.35;;
19778;SDS011;10049;59.306;18.090;2023-02-15T05:02:16;6.57;;;2.72;;
19778;SDS011;10049;59.306;18.090;2023-02-15T05:04:44;3.55;;;2.53;;
19778;SDS011;10049;59.306;18.090;2023-02-15T05:07:12;4.95;;;2.90;;
19778;SDS011;10049;59.306;18.090;2023-02-15T05:09:40;5.38;;;3.08;;
19778;SDS011;10049;59.306;18.090;2023-02-15T05:12:09;5.38;;;2.97;;
19778;SDS011;10049;59.306;18.090;2023-02-15T05:14:37;4.32;;;2.80;;
19778;SDS011;10049;59.306;18.090;2023-02-15T05:17:04;5.65;;;2.88;;
19778;SDS011;10049;59.306;18.090;2023-02-15T05:19:32;1.75;;;1.25;;
19778;SDS011;10049;59.306;18.090;2023-02-15T05:22:00;4.47;;;2.83;;
19778;SDS011;10049;59.306;18.090;2023-02-15T05:24:27;4.68;;;2.75;;
19778;SDS011;10049;59.306;18.090;2023-02-15T05:27:27;4.82;;;2.72;;
19778;SDS011;10049;59.306;18.090;2023-02-15T05:30:15;4.20;;;2.92;;
19778;SDS011;10049;59.306;18.090;2023-02-15T05:32:59;5.22;;;2.92;;
19778;SDS011;10049;59.306;18.090;2023-02-15T05:35:27;4.18;;;2.60;;
19778;SDS011;10049;59.306;18.090;2023-02-15T05:37:55;4.60;;;2.88;;
19778;SDS011;10049;59.306;18.090;2023-02-15T05:40:22;7.45;;;3.38;;
19778;SDS011;10049;59.306;18.090;2023-02-15T05:42:51;4.88;;;2.95;;
19778;SDS011;10049;59.306;18.090;2023-02-15T05:45:19;5.43;;;2.92;;
19778;SDS011;10049;59.306;18.090;2023-02-15T05:47:47;5.75;;;2.97;;
19778;SDS011;10049;59.306;18.090;2023-02-15T05:50:15;5.35;;;3.00;;
19778;SDS011;10049;59.306;18.090;2023-02-15T05:52:43;4.90;;;3.13;;
19778;SDS011;10049;59.306;18.090;2023-02-15T05:55:11;5.13;;;3.20;;
19778;SDS011;10049;59.306;18.090;2023-02-15T05:57:38;5.55;;;3.33;;
19778;SDS011;10049;59.306;18.090;2023-02-15T06:00:09;5.30;;;3.28;;
19778;SDS011;10049;59.306;18.090;2023-02-15T06:02:51;5.25;;;3.20;;
19778;SDS011;10049;59.306;18.090;2023-02-15T06:05:19;6.07;;;2.92;;
19778;SDS011;10049;59.306;18.090;2023-02-15T06:07:50;5.60;;;3.10;;
19778;SDS011;10049;59.306;18.090;2023-02-15T06:10:17;7.50;;;3.47;;
19778;SDS011;10049;59.306;18.090;2023-02-15T06:12:46;7.10;;;3.20;;
19778;SDS011;10049;59.306;18.090;2023-02-15T06:15:15;6.50;;;3.63;;
19778;SDS011;10049;59.306;18.090;2023-02-15T06:17:43;6.22;;;3.20;;
19778;SDS011;10049;59.306;18.090;2023-02-15T06:20:11;4.15;;;2.85;;
19778;SDS011;10049;59.306;18.090;2023-02-15T06:22:39;5.15;;;3.33;;
19778;SDS011;10049;59.306;18.090;2023-02-15T06:25:06;5.65;;;3.15;;
19778;SDS011;10049;59.306;18.090;2023-02-15T06:27:36;4.30;;;2.80;;
19778;SDS011;10049;59.306;18.090;2023-02-15T06:30:04;4.57;;;2.97;;
19778;SDS011;10049;59.306;18.090;2023-02-15T06:32:33;5.90;;;3.45;;
19778;SDS011;10049;59.306;18.090;2023-02-15T06:35:01;6.78;;;3.45;;
19778;SDS011;10049;59.306;18.090;2023-02-15T06:37:29;5.68;;;3.20;;
19778;SDS011;10049;59.306;18.090;2023-02-15T06:39:57;6.50;;;3.20;;
19778;SDS011;10049;59.306;18.090;2023-02-15T06:42:25;7.40;;;3.63;;
19778;SDS011;10049;59.306;18.090;2023-02-15T06:44:53;6.00;;;3.40;;
19778;SDS011;10049;59.306;18.090;2023-02-15T06:47:21;4.85;;;3.22;;
19778;SDS011;10049;59.306;18.090;2023-02-15T06:49:50;5.80;;;3.28;;
19778;SDS011;10049;59.306;18.090;2023-02-15T06:52:18;8.68;;;3.10;;
19778;SDS011;10049;59.306;18.090;2023-02-15T06:54:46;6.55;;;3.45;;
19778;SDS011;10049;59.306;18.090;2023-02-15T06:57:13;7.18;;;3.05;;
19778;SDS011;10049;59.306;18.090;2023-02-15T06:59:43;4.95;;;3.10;;
19778;SDS011;10049;59.306;18.090;2023-02-15T07:02:11;4.95;;;3.10;;
19778;SDS011;10049;59.306;18.090;2023-02-15T07:04:39;6.03;;;3.20;;
19778;SDS011;10049;59.306;18.090;2023-02-15T07:07:09;4.15;;;2.95;;
19778;SDS011;10049;59.306;18.090;2023-02-15T07:09:37;5.72;;;3.30;;
19778;SDS011;10049;59.306;18.090;2023-02-15T07:12:05;4.15;;;3.00;;
19778;SDS011;10049;59.306;18.090;2023-02-15T07:14:50;4.70;;;2.83;;
19778;SDS011;10049;59.306;18.090;2023-02-15T07:17:21;6.20;;;2.97;;
19778;SDS011;10049;59.306;18.090;2023-02-15T07:19:48;8.35;;;3.50;;
19778;SDS011;10049;59.306;18.090;2023-02-15T07:22:18;4.85;;;3.00;;
19778;SDS011;10049;59.306;18.090;2023-02-15T07:24:46;7.53;;;3.50;;
19778;SDS011;10049;59.306;18.090;2023-02-15T07:27:14;5.18;;;2.95;;
19778;SDS011;10049;59.306;18.090;2023-02-15T07:29:41;4.45;;;2.95;;
19778;SDS011;10049;59.306;18.090;2023-02-15T07:32:09;6.05;;;3.38;;
19778;SDS011;10049;59.306;18.090;2023-02-15T07:34:38;3.50;;;2.40;;
19778;SDS011;10049;59.306;18.090;2023-02-15T07:37:07;4.07;;;2.70;;
19778;SDS011;10049;59.306;18.090;2023-02-15T07:39:36;3.85;;;2.60;;
19778;SDS011;10049;59.306;18.090;2023-02-15T07:42:04;4.95;;;2.80;;
19778;SDS011;10049;59.306;18.090;2023-02-15T07:44:32;4.55;;;2.80;;
19778;SDS011;10049;59.306;18.090;2023-02-15T07:47:02;4.60;;;2.80;;
19778;SDS011;10049;59.306;18.090;2023-02-15T07:49:31;3.58;;;2.63;;
19778;SDS011;10049;59.306;18.090;2023-02-15T07:52:02;4.15;;;2.65;;
19778;SDS011;10049;59.306;18.090;2023-02-15T07:54:30;4.32;;;3.15;;
19778;SDS011;10049;59.306;18.090;2023-02-15T07:57:00;4.80;;;2.75;;
19778;SDS011;10049;59.306;18.090;2023-02-15T07:59:29;3.85;;;2.67;;
19778;SDS011;10049;59.306;18.090;2023-02-15T08:01:58;3.70;;;2.78;;
19778;SDS011;10049;59.306;18.090;2023-02-15T08:04:27;4.00;;;2.50;;
19778;SDS011;10049;59.306;18.090;2023-02-15T08:07:06;4.03;;;2.20;;
19778;SDS011;10049;59.306;18.090;2023-02-15T08:09:33;6.63;;;2.90;;
19778;SDS011;10049;59.306;18.090;2023-02-15T08:12:05;5.05;;;2.50;;
19778;SDS011;10049;59.306;18.090;2023-02-15T08:14:35;4.10;;;2.75;;
19778;SDS011;10049;59.306;18.090;2023-02-15T08:17:02;5.85;;;3.10;;
19778;SDS011;10049;59.306;18.090;2023-02-15T08:19:31;4.78;;;2.40;;
19778;SDS011;10049;59.306;18.090;2023-02-15T08:22:00;6.35;;;2.05;;
19778;SDS011;10049;59.306;18.090;2023-02-15T08:24:30;3.47;;;2.10;;
19778;SDS011;10049;59.306;18.090;2023-02-15T08:26:58;4.63;;;2.20;;
19778;SDS011;10049;59.306;18.090;2023-02-15T08:29:30;3.53;;;2.50;;
19778;SDS011;10049;59.306;18.090;2023-02-15T08:31:59;2.88;;;2.13;;
19778;SDS011;10049;59.306;18.090;2023-02-15T08:34:30;11.30;;;2.63;;
19778;SDS011;10049;59.306;18.090;2023-02-15T08:37:06;4.10;;;2.28;;
19778;SDS011;10049;59.306;18.090;2023-02-15T08:39:34;3.15;;;2.08;;
19778;SDS011;10049;59.306;18.090;2023-02-15T08:42:02;4.60;;;2.60;;
19778;SDS011;10049;59.306;18.090;2023-02-15T08:44:31;5.72;;;2.60;;
19778;SDS011;10049;59.306;18.090;2023-02-15T08:47:00;3.75;;;2.50;;
19778;SDS011;10049;59.306;18.090;2023-02-15T08:49:34;4.32;;;2.38;;
19778;SDS011;10049;59.306;18.090;2023-02-15T08:55:05;3.70;;;2.20;;
19778;SDS011;10049;59.306;18.090;2023-02-15T08:57:39;5.55;;;2.60;;
19778;SDS011;10049;59.306;18.090;2023-02-15T09:00:19;5.38;;;2.55;;
19778;SDS011;10049;59.306;18.090;2023-02-15T09:02:53;4.07;;;2.38;;
19778;SDS011;10049;59.306;18.090;2023-02-15T09:05:21;3.33;;;2.05;;
19778;SDS011;10049;59.306;18.090;2023-02-15T09:07:49;4.03;;;1.70;;
19778;SDS011;10049;59.306;18.090;2023-02-15T09:10:17;2.92;;;2.03;;
19778;SDS011;10049;59.306;18.090;2023-02-15T09:12:45;3.38;;;2.17;;
19778;SDS011;10049;59.306;18.090;2023-02-15T09:15:19;4.50;;;2.47;;
19778;SDS011;10049;59.306;18.090;2023-02-15T09:17:47;2.83;;;2.00;;
19778;SDS011;10049;59.306;18.090;2023-02-15T09:20:15;4.82;;;2.92;;
19778;SDS011;10049;59.306;18.090;2023-02-15T09:22:42;4.97;;;2.72;;
19778;SDS011;10049;59.306;18.090;2023-02-15T09:25:10;3.83;;;2.10;;
19778;SDS011;10049;59.306;18.090;2023-02-15T09:27:38;1.90;;;1.48;;
19778;SDS011;10049;59.306;18.090;2023-02-15T09:30:06;2.60;;;1.70;;
19778;SDS011;10049;59.306;18.090;2023-02-15T09:32:36;2.63;;;1.80;;
19778;SDS011;10049;59.306;18.090;2023-02-15T09:35:04;5.40;;;2.00;;
19778;SDS011;10049;59.306;18.090;2023-02-15T09:37:31;3.13;;;1.90;;
19778;SDS011;10049;59.306;18.090;2023-02-15T09:39:59;3.67;;;2.00;;
19778;SDS011;10049;59.306;18.090;2023-02-15T09:42:43;5.28;;;2.30;;
19778;SDS011;10049;59.306;18.090;2023-02-15T09:45:29;4.57;;;2.45;;
19778;SDS011;10049;59.306;18.090;2023-02-15T09:48:10;3.40;;;1.80;;
19778;SDS011;10049;59.306;18.090;2023-02-15T09:50:54;8.50;;;2.13;;
19778;SDS011;10049;59.306;18.090;2023-02-15T09:53:36;3.28;;;1.90;;
19778;SDS011;10049;59.306;18.090;2023-02-15T09:56:06;2.15;;;1.58;;
19778;SDS011;10049;59.306;18.090;2023-02-15T09:58:40;4.18;;;2.17;;
19778;SDS011;10049;59.306;18.090;2023-02-15T10:01:12;2.55;;;1.90;;
19778;SDS011;10049;59.306;18.090;2023-02-15T10:03:50;2.33;;;1.58;;
19778;SDS011;10049;59.306;18.090;2023-02-15T10:06:31;3.15;;;1.95;;
19778;SDS011;10049;59.306;18.090;2023-02-15T10:09:05;2.35;;;1.70;;
19778;SDS011;10049;59.306;18.090;2023-02-15T10:11:39;4.97;;;1.85;;
19778;SDS011;10049;59.306;18.090;2023-02-15T10:14:15;3.13;;;1.52;;
19778;SDS011;10049;59.306;18.090;2023-02-15T10:16:48;3.03;;;2.00;;
19778;SDS011;10049;59.306;18.090;2023-02-15T10:19:23;2.72;;;1.80;;
19778;SDS011;10049;59.306;18.090;2023-02-15T10:21:58;2.72;;;1.80;;
19778;SDS011;10049;59.306;18.090;2023-02-15T10:24:30;3.63;;;1.90;;
19778;SDS011;10049;59.306;18.090;2023-02-15T10:27:06;3.42;;;1.75;;
19778;SDS011;10049;59.306;18.090;2023-02-15T10:29:36;4.10;;;2.22;;
19778;SDS011;10049;59.306;18.090;2023-02-15T10:32:15;3.38;;;2.50;;
19778;SDS011;10049;59.306;18.090;2023-02-15T10:34:48;4.70;;;2.20;;
19778;SDS011;10049;59.306;18.090;2023-02-15T10:37:22;2.67;;;1.88;;
19778;SDS011;10049;59.306;18.090;2023-02-15T10:39:54;3.70;;;1.90;;
19778;SDS011;10049;59.306;18.090;2023-02-15T10:42:26;3.83;;;2.08;;
19778;SDS011;10049;59.306;18.090;2023-02-15T10:45:02;2.33;;;1.65;;
19778;SDS011;10049;59.306;18.090;2023-02-15T10:47:43;4.88;;;1.95;;
19778;SDS011;10049;59.306;18.090;2023-02-15T10:50:29;2.70;;;1.85;;
19778;SDS011;10049;59.306;18.090;2023-02-15T10:53:02;3.15;;;2.13;;
19778;SDS011;10049;59.306;18.090;2023-02-15T10:55:37;4.63;;;2.35;;
19778;SDS011;10049;59.306;18.090;2023-02-15T10:58:08;3.58;;;2.10;;
19778;SDS011;10049;59.306;18.090;2023-02-15T11:00:39;4.63;;;2.30;;
19778;SDS011;10049;59.306;18.090;2023-02-15T11:03:13;3.47;;;2.25;;
19778;SDS011;10049;59.306;18.090;2023-02-15T11:05:48;4.32;;;2.10;;
19778;SDS011;10049;59.306;18.090;2023-02-15T11:08:20;2.85;;;2.10;;
19778;SDS011;10049;59.306;18.090;2023-02-15T11:10:51;4.18;;;1.90;;
19778;SDS011;10049;59.306;18.090;2023-02-15T11:13:21;5.63;;;2.42;;
19778;SDS011;10049;59.306;18.090;2023-02-15T11:15:51;3.42;;;2.17;;
19778;SDS011;10049;59.306;18.090;2023-02-15T11:18:21;3.95;;;2.38;;
19778;SDS011;10049;59.306;18.090;2023-02-15T11:20:53;4.75;;;2.38;;
19778;SDS011;10049;59.306;18.090;2023-02-15T11:23:22;3.55;;;2.50;;
19778;SDS011;10049;59.306;18.090;2023-02-15T11:25:53;6.57;;;2.03;;
19778;SDS011;10049;59.306;18.090;2023-02-15T11:28:22;3.40;;;1.80;;
19778;SDS011;10049;59.306;18.090;2023-02-15T11:30:51;3.58;;;2.10;;
19778;SDS011;10049;59.306;18.090;2023-02-15T11:33:22;3.65;;;2.10;;
19778;SDS011;10049;59.306;18.090;2023-02-15T11:35:55;3.67;;;2.33;;
19778;SDS011;10049;59.306;18.090;2023-02-15T11:38:31;3.85;;;2.33;;
19778;SDS011;10049;59.306;18.090;2023-02-15T11:41:02;7.70;;;1.80;;
19778;SDS011;10049;59.306;18.090;2023-02-15T11:43:33;3.80;;;2.53;;
19778;SDS011;10049;59.306;18.090;2023-02-15T11:46:02;3.38;;;2.10;;
19778;SDS011;10049;59.306;18.090;2023-02-15T11:48:32;3.80;;;2.20;;
19778;SDS011;10049;59.306;18.090;2023-02-15T11:51:01;3.60;;;2.20;;
19778;SDS011;10049;59.306;18.090;2023-02-15T11:53:31;5.18;;;2.88;;
19778;SDS011;10049;59.306;18.090;2023-02-15T11:55:59;5.07;;;2.63;;
19778;SDS011;10049;59.306;18.090;2023-02-15T11:58:30;5.15;;;2.65;;
19778;SDS011;10049;59.306;18.090;2023-02-15T12:01:01;6.35;;;2.50;;
19778;SDS011;10049;59.306;18.090;2023-02-15T12:03:37;4.80;;;2.47;;
19778;SDS011;10049;59.306;18.090;2023-02-15T12:06:11;3.97;;;2.30;;
19778;SDS011;10049;59.306;18.090;2023-02-15T12:08:42;5.78;;;2.50;;
19778;SDS011;10049;59.306;18.090;2023-02-15T12:11:12;4.05;;;2.38;;
19778;SDS011;10049;59.306;18.090;2023-02-15T12:13:53;4.65;;;2.30;;
19778;SDS011;10049;59.306;18.090;2023-02-15T12:16:25;3.50;;;2.30;;
19778;SDS011;10049;59.306;18.090;2023-02-15T12:18:53;3.83;;;2.42;;
19778;SDS011;10049;59.306;18.090;2023-02-15T12:21:27;5.22;;;2.50;;
19778;SDS011;10049;59.306;18.090;2023-02-15T12:23:57;5.45;;;2.65;;
19778;SDS011;10049;59.306;18.090;2023-02-15T12:26:26;5.55;;;2.63;;
19778;SDS011;10049;59.306;18.090;2023-02-15T12:28:54;4.60;;;2.78;;
19778;SDS011;10049;59.306;18.090;2023-02-15T12:31:27;3.88;;;2.45;;
19778;SDS011;10049;59.306;18.090;2023-02-15T12:33:59;4.35;;;2.38;;
19778;SDS011;10049;59.306;18.090;2023-02-15T12:36:31;3.50;;;2.45;;
19778;SDS011;10049;59.306;18.090;2023-02-15T12:39:03;4.38;;;2.40;;
19778;SDS011;10049;59.306;18.090;2023-02-15T12:41:31;4.03;;;2.50;;
19778;SDS011;10049;59.306;18.090;2023-02-15T12:44:03;7.70;;;2.80;;
19778;SDS011;10049;59.306;18.090;2023-02-15T12:46:32;4.47;;;2.60;;
19778;SDS011;10049;59.306;18.090;2023-02-15T12:49:06;5.10;;;2.50;;
19778;SDS011;10049;59.306;18.090;2023-02-15T12:51:43;3.80;;;2.33;;
19778;SDS011;10049;59.306;18.090;2023-02-15T12:54:21;4.90;;;2.38;;
19778;SDS011;10049;59.306;18.090;2023-02-15T12:56:53;4.20;;;2.50;;
19778;SDS011;10049;59.306;18.090;2023-02-15T12:59:22;5.30;;;2.80;;
19778;SDS011;10049;59.306;18.090;2023-02-15T13:01:50;5.50;;;2.50;;
19778;SDS011;10049;59.306;18.090;2023-02-15T13:04:21;4.20;;;2.72;;
19778;SDS011;10049;59.306;18.090;2023-02-15T13:06:51;3.60;;;2.55;;
19778;SDS011;10049;59.306;18.090;2023-02-15T13:09:20;5.05;;;2.70;;
19778;SDS011;10049;59.306;18.090;2023-02-15T13:11:49;6.78;;;2.58;;
19778;SDS011;10049;59.306;18.090;2023-02-15T13:14:17;5.55;;;2.20;;
19778;SDS011;10049;59.306;18.090;2023-02-15T13:16:46;4.05;;;2.50;;
19778;SDS011;10049;59.306;18.090;2023-02-15T13:19:15;4.30;;;2.53;;
19778;SDS011;10049;59.306;18.090;2023-02-15T13:21:45;3.53;;;2.17;;
19778;SDS011;10049;59.306;18.090;2023-02-15T13:24:17;3.60;;;2.28;;
19778;SDS011;10049;59.306;18.090;2023-02-15T13:26:48;3.83;;;2.33;;
19778;SDS011;10049;59.306;18.090;2023-02-15T13:29:17;3.33;;;2.30;;
19778;SDS011;10049;59.306;18.090;2023-02-15T13:31:45;4.72;;;2.70;;
19778;SDS011;10049;59.306;18.090;2023-02-15T13:34:15;4.43;;;2.35;;
19778;SDS011;10049;59.306;18.090;2023-02-15T13:36:47;5.10;;;2.35;;
19778;SDS011;10049;59.306;18.090;2023-02-15T13:39:24;4.63;;;2.53;;
19778;SDS011;10049;59.306;18.090;2023-02-15T13:41:55;4.72;;;2.65;;
19778;SDS011;10049;59.306;18.090;2023-02-15T13:47:17;3.95;;;2.40;;
19778;SDS011;10049;59.306;18.090;2023-02-15T13:49:50;4.85;;;2.55;;
19778;SDS011;10049;59.306;18.090;2023-02-15T13:52:20;4.13;;;2.35;;
19778;SDS011;10049;59.306;18.090;2023-02-15T13:54:56;6.22;;;2.75;;
19778;SDS011;10049;59.306;18.090;2023-02-15T13:57:39;5.10;;;2.88;;
19778;SDS011;10049;59.306;18.090;2023-02-15T14:00:12;3.17;;;2.05;;
19778;SDS011;10049;59.306;18.090;2023-02-15T14:05:44;4.28;;;2.50;;
19778;SDS011;10049;59.306;18.090;2023-02-15T14:08:18;3.92;;;2.47;;
19778;SDS011;10049;59.306;18.090;2023-02-15T14:10:53;7.07;;;2.90;;
19778;SDS011;10049;59.306;18.090;2023-02-15T14:16:13;5.32;;;2.78;;
19778;SDS011;10049;59.306;18.090;2023-02-15T14:18:43;4.43;;;2.47;;
19778;SDS011;10049;59.306;18.090;2023-02-15T14:21:14;4.85;;;2.53;;
19778;SDS011;10049;59.306;18.090;2023-02-15T14:23:55;6.43;;;2.38;;
19778;SDS011;10049;59.306;18.090;2023-02-15T14:26:29;5.18;;;2.30;;
19778;SDS011;10049;59.306;18.090;2023-02-15T14:29:04;6.43;;;2.30;;
19778;SDS011;10049;59.306;18.090;2023-02-15T14:31:37;3.00;;;2.15;;
19778;SDS011;10049;59.306;18.090;2023-02-15T14:34:08;4.63;;;2.40;;
19778;SDS011;10049;59.306;18.090;2023-02-15T14:36:44;3.70;;;2.03;;
19778;SDS011;10049;59.306;18.090;2023-02-15T14:39:14;2.28;;;1.60;;
19778;SDS011;10049;59.306;18.090;2023-02-15T14:42:04;4.57;;;2.35;;
19778;SDS011;10049;59.306;18.090;2023-02-15T14:44:36;4.57;;;2.33;;
19778;SDS011;10049;59.306;18.090;2023-02-15T14:47:05;5.57;;;2.33;;
19778;SDS011;10049;59.306;18.090;2023-02-15T14:49:35;5.00;;;1.92;;
19778;SDS011;10049;59.306;18.090;2023-02-15T14:52:04;4.95;;;1.88;;
19778;SDS011;10049;59.306;18.090;2023-02-15T15:02:52;3.17;;;2.00;;
19778;SDS011;10049;59.306;18.090;2023-02-15T15:05:29;4.00;;;2.23;;
19778;SDS011;10049;59.306;18.090;2023-02-15T15:08:00;5.60;;;2.43;;
19778;SDS011;10049;59.306;18.090;2023-02-15T15:10:39;3.17;;;2.07;;
19778;SDS011;10049;59.306;18.090;2023-02-15T15:15:53;3.40;;;2.20;;
19778;SDS011;10049;59.306;18.090;2023-02-15T15:21:06;2.93;;;1.83;;
19778;SDS011;10049;59.306;18.090;2023-02-15T15:23:43;3.20;;;1.87;;
19778;SDS011;10049;59.306;18.090;2023-02-15T15:26:21;2.90;;;1.67;;
19778;SDS011;10049;59.306;18.090;2023-02-15T15:28:52;3.00;;;2.03;;